createdAt,value
2022-12-08T00:01:26.416Z,86.98
2022-12-08T00:03:55.390Z,89.87
2022-12-08T00:06:46.815Z,88.96
2022-12-08T00:09:22.033Z,89.91
2022-12-08T00:11:53.580Z,91.01
2022-12-08T00:14:27.268Z,90.52
2022-12-08T00:16:55.463Z,90.78
2022-12-08T00:19:23.408Z,90.07
2022-12-08T00:21:51.449Z,88.61
2022-12-08T00:24:18.950Z,89.08
2022-12-08T00:26:47.087Z,87.92
2022-12-08T00:29:17.594Z,89.44
2022-12-08T00:31:45.325Z,88.30
2022-12-08T00:34:14.607Z,88.90
2022-12-08T00:36:42.177Z,88.59
2022-12-08T00:39:11.331Z,86.75
2022-12-08T00:41:57.654Z,85.97
2022-12-08T00:44:25.441Z,88.02
2022-12-08T00:46:53.157Z,88.37
2022-12-08T00:49:20.788Z,87.86
2022-12-08T00:51:49.496Z,86.42
2022-12-08T00:54:17.480Z,85.78
2022-12-08T00:56:44.902Z,83.76
2022-12-08T00:59:12.316Z,80.41
2022-12-08T01:01:40.120Z,79.46
2022-12-08T01:04:10.261Z,84.29
2022-12-08T01:06:39.199Z,85.94
2022-12-08T01:09:07.708Z,85.28
2022-12-08T01:11:35.610Z,85.96
2022-12-08T01:14:03.453Z,84.24
2022-12-08T01:16:33.508Z,84.10
2022-12-08T01:19:01.696Z,84.13
2022-12-08T01:21:29.152Z,84.47
2022-12-08T01:23:59.560Z,85.66
2022-12-08T01:26:26.912Z,86.24
2022-12-08T01:28:54.671Z,86.80
2022-12-08T01:31:22.632Z,87.26
2022-12-08T01:33:50.446Z,87.04
2022-12-08T01:36:23.521Z,86.72
2022-12-08T01:38:51.905Z,87.13
2022-12-08T01:41:22.032Z,85.70
2022-12-08T01:43:57.056Z,85.80
2022-12-08T01:46:25.875Z,86.39
2022-12-08T01:48:57.310Z,85.91
2022-12-08T01:51:28.378Z,85.28
2022-12-08T01:53:56.153Z,86.08
2022-12-08T01:56:32.915Z,85.77
2022-12-08T01:59:00.671Z,86.51
2022-12-08T02:01:28.086Z,87.90
2022-12-08T02:03:59.482Z,90.27
2022-12-08T02:06:28.990Z,89.13
2022-12-08T02:08:58.116Z,89.73
2022-12-08T02:11:25.536Z,89.89
2022-12-08T02:13:53.403Z,91.88
2022-12-08T02:16:35.889Z,91.37
2022-12-08T02:19:30.814Z,89.91
2022-12-08T02:22:18.057Z,88.33
2022-12-08T02:25:08.016Z,88.90
2022-12-08T02:27:54.061Z,89.13
2022-12-08T02:30:47.614Z,88.84
2022-12-08T02:33:34.152Z,89.24
2022-12-08T02:36:16.220Z,88.43
2022-12-08T02:39:08.677Z,88.21
2022-12-08T02:41:35.924Z,89.14
2022-12-08T02:44:18.793Z,89.39
2022-12-08T02:47:27.751Z,89.20
2022-12-08T02:49:56.258Z,89.87
2022-12-08T02:52:23.556Z,88.84
2022-12-08T02:54:54.182Z,89.41
2022-12-08T02:57:36.660Z,88.44
2022-12-08T03:00:08.725Z,88.33
2022-12-08T03:02:42.701Z,89.15
2022-12-08T03:05:51.769Z,90.88
2022-12-08T03:08:37.143Z,90.81
2022-12-08T03:11:20.309Z,90.20
2022-12-08T03:13:53.280Z,90.73
2022-12-08T03:16:23.503Z,91.88
2022-12-08T03:19:07.003Z,91.14
2022-12-08T03:21:35.261Z,87.84
2022-12-08T03:24:05.731Z,87.50
2022-12-08T03:27:03.677Z,91.13
2022-12-08T03:29:32.653Z,89.25
2022-12-08T03:32:06.895Z,88.88
2022-12-08T03:34:35.416Z,87.38
2022-12-08T03:37:02.813Z,85.98
2022-12-08T03:39:30.304Z,82.84
2022-12-08T03:41:57.981Z,81.66
2022-12-08T03:44:25.343Z,79.94
2022-12-08T03:46:52.725Z,79.05
2022-12-08T03:49:20.383Z,78.24
2022-12-08T03:51:47.764Z,79.05
2022-12-08T03:54:15.177Z,78.89
2022-12-08T03:56:42.854Z,77.38
2022-12-08T03:59:10.695Z,77.46
2022-12-08T04:01:38.083Z,77.83
2022-12-08T04:04:05.854Z,77.56
2022-12-08T04:06:33.447Z,77.69
2022-12-08T04:09:01.592Z,76.29
2022-12-08T04:11:29.252Z,75.23
2022-12-08T04:13:56.666Z,76.96
2022-12-08T04:16:25.310Z,76.23
2022-12-08T04:18:53.015Z,75.60
2022-12-08T04:21:20.737Z,75.47
2022-12-08T04:23:48.619Z,76.52
2022-12-08T04:26:16.565Z,77.79
2022-12-08T04:28:44.042Z,78.52
2022-12-08T04:31:11.500Z,81.17
2022-12-08T04:33:39.312Z,83.41
2022-12-08T04:36:07.391Z,83.77
2022-12-08T04:38:34.959Z,80.88
2022-12-08T04:41:02.691Z,77.19
2022-12-08T04:43:30.247Z,76.21
2022-12-08T04:45:57.599Z,74.59
2022-12-08T04:48:25.678Z,73.92
2022-12-08T04:50:53.059Z,73.64
2022-12-08T04:53:21.302Z,73.23
2022-12-08T04:55:49.754Z,73.83
2022-12-08T04:58:18.875Z,74.12
2022-12-08T05:00:47.433Z,74.28
2022-12-08T05:03:15.585Z,74.47
2022-12-08T05:05:43.535Z,76.84
2022-12-08T05:08:11.261Z,74.86
2022-12-08T05:10:39.327Z,74.83
2022-12-08T05:13:06.821Z,73.36
2022-12-08T05:15:34.195Z,73.89
2022-12-08T05:18:01.868Z,76.16
2022-12-08T05:20:29.239Z,78.04
2022-12-08T05:22:56.627Z,77.16
2022-12-08T05:25:24.374Z,75.67
2022-12-08T05:27:55.272Z,74.15
2022-12-08T05:30:29.758Z,73.49
2022-12-08T05:32:57.513Z,73.53
2022-12-08T05:35:24.877Z,72.67
2022-12-08T05:37:53.976Z,72.31
2022-12-08T05:40:21.652Z,72.69
2022-12-08T05:42:49.053Z,75.91
2022-12-08T05:45:16.747Z,79.24
2022-12-08T05:47:44.455Z,81.77
2022-12-08T05:50:11.834Z,81.29
2022-12-08T05:52:39.478Z,81.20
2022-12-08T05:55:07.044Z,76.97
2022-12-08T05:57:34.402Z,75.91
2022-12-08T06:00:02.747Z,77.29
2022-12-08T06:02:39.637Z,75.65
2022-12-08T06:05:07.926Z,75.01
2022-12-08T06:07:35.451Z,74.19
2022-12-08T06:10:03.666Z,74.22
2022-12-08T06:12:31.858Z,73.71
2022-12-08T06:14:59.225Z,72.82
2022-12-08T06:17:26.581Z,71.53
2022-12-08T06:19:54.239Z,71.14
2022-12-08T06:22:21.831Z,70.80
2022-12-08T06:24:49.303Z,71.93
2022-12-08T06:27:17.177Z,72.72
2022-12-08T06:29:44.579Z,74.04
2022-12-08T06:32:12.073Z,74.87
2022-12-08T06:34:39.785Z,72.87
2022-12-08T06:37:07.191Z,71.63
2022-12-08T06:39:34.575Z,71.63
2022-12-08T06:42:20.879Z,76.19
2022-12-08T06:44:48.666Z,78.88
2022-12-08T06:47:16.463Z,79.09
2022-12-08T06:49:43.888Z,77.35
2022-12-08T06:52:11.302Z,76.29
2022-12-08T06:54:39.112Z,75.55
2022-12-08T06:57:06.736Z,75.06
2022-12-08T06:59:34.108Z,74.84
2022-12-08T07:02:01.859Z,74.15
2022-12-08T07:04:29.406Z,75.32
2022-12-08T07:06:56.796Z,74.60
2022-12-08T07:09:24.751Z,74.72
2022-12-08T07:11:52.341Z,74.98
2022-12-08T07:14:23.661Z,74.90
2022-12-08T07:16:52.301Z,75.65
2022-12-08T07:19:20.076Z,75.42
2022-12-08T07:21:47.693Z,74.29
2022-12-08T07:24:15.366Z,73.99
2022-12-08T07:26:42.826Z,73.22
2022-12-08T07:29:10.812Z,73.38
2022-12-08T07:31:38.549Z,73.90
2022-12-08T07:34:05.966Z,73.97
2022-12-08T07:36:33.327Z,74.34
2022-12-08T07:39:01.068Z,73.73
2022-12-08T07:41:28.433Z,73.85
2022-12-08T07:43:56.618Z,73.63
2022-12-08T07:46:25.473Z,72.62
2022-12-08T07:48:54.156Z,73.02
2022-12-08T07:51:21.729Z,73.42
2022-12-08T07:53:54.067Z,73.39
2022-12-08T07:56:22.867Z,73.78
2022-12-08T07:58:50.767Z,73.70
2022-12-08T08:01:32.377Z,73.51
2022-12-08T08:04:02.228Z,74.01
2022-12-08T08:06:30.208Z,74.04
2022-12-08T08:08:57.668Z,74.61
2022-12-08T08:11:25.384Z,74.83
2022-12-08T08:13:52.868Z,74.86
2022-12-08T08:16:21.053Z,75.28
2022-12-08T08:18:50.491Z,75.30
2022-12-08T08:24:07.166Z,74.27
2022-12-08T08:26:34.744Z,73.60
2022-12-08T08:29:02.097Z,73.82
2022-12-08T08:31:29.851Z,73.95
2022-12-08T08:33:57.377Z,73.96
2022-12-08T08:36:25.064Z,73.67
2022-12-08T08:38:52.838Z,73.28
2022-12-08T08:41:20.512Z,73.88
2022-12-08T08:43:48.075Z,73.64
2022-12-08T08:46:16.092Z,73.39
2022-12-08T08:48:43.558Z,73.30
2022-12-08T08:51:12.728Z,74.25
2022-12-08T08:53:40.900Z,75.56
2022-12-08T08:56:13.288Z,74.22
2022-12-08T08:58:41.456Z,73.59
2022-12-08T09:01:08.885Z,73.33
2022-12-08T09:03:36.287Z,73.13
2022-12-08T09:06:04.081Z,72.82
2022-12-08T09:08:31.621Z,72.64
2022-12-08T09:10:59.237Z,71.43
2022-12-08T09:13:27.317Z,73.80
2022-12-08T09:15:54.745Z,73.48
2022-12-08T09:18:22.171Z,72.82
2022-12-08T09:20:49.797Z,72.17
2022-12-08T09:23:17.533Z,72.64
2022-12-08T09:25:45.687Z,72.92
2022-12-08T09:28:14.244Z,71.96
2022-12-08T09:31:00.645Z,72.74
2022-12-08T09:33:28.412Z,71.77
2022-12-08T09:35:55.822Z,72.76
2022-12-08T09:38:23.363Z,72.68
2022-12-08T09:40:53.352Z,73.95
2022-12-08T09:43:39.223Z,74.20
2022-12-08T09:46:11.963Z,72.51
2022-12-08T09:48:43.082Z,71.36
2022-12-08T09:51:11.633Z,69.71
2022-12-08T09:53:45.554Z,71.49
2022-12-08T09:56:22.479Z,70.36
2022-12-08T09:59:08.573Z,70.73
2022-12-08T10:01:41.974Z,70.08
2022-12-08T10:04:34.287Z,70.04
2022-12-08T10:07:30.894Z,68.01
2022-12-08T10:10:17.496Z,66.76
2022-12-08T10:13:00.227Z,66.62
2022-12-08T10:15:40.233Z,66.57
2022-12-08T10:18:15.381Z,67.00
2022-12-08T10:20:46.367Z,65.97
2022-12-08T10:23:16.282Z,66.29
2022-12-08T10:25:47.924Z,66.51
2022-12-08T10:28:15.581Z,66.15
2022-12-08T10:30:43.336Z,68.40
2022-12-08T10:33:18.998Z,68.17
2022-12-08T10:35:52.458Z,68.34
2022-12-08T10:38:27.567Z,68.18
2022-12-08T10:41:01.863Z,66.86
2022-12-08T10:43:30.151Z,65.77
2022-12-08T10:46:09.208Z,66.27
2022-12-08T10:48:37.024Z,68.23
2022-12-08T10:51:05.723Z,68.25
2022-12-08T10:53:34.395Z,67.31
2022-12-08T10:56:01.948Z,68.84
2022-12-08T10:58:36.129Z,68.15
2022-12-08T11:01:06.868Z,66.87
2022-12-08T11:03:37.937Z,66.12
2022-12-08T11:06:24.188Z,65.10
2022-12-08T11:08:59.553Z,64.52
2022-12-08T11:11:47.449Z,66.67
2022-12-08T11:14:33.242Z,68.38
2022-12-08T11:17:09.001Z,67.05
2022-12-08T11:19:41.063Z,66.39
2022-12-08T11:22:32.593Z,67.40
2022-12-08T11:25:03.458Z,67.53
2022-12-08T11:27:32.973Z,69.06
2022-12-08T11:30:01.397Z,68.54
2022-12-08T11:32:28.890Z,68.83
2022-12-08T11:35:00.910Z,68.16
2022-12-08T11:37:34.668Z,68.07
2022-12-08T11:40:07.788Z,67.34
2022-12-08T11:42:40.637Z,66.83
2022-12-08T11:45:14.093Z,67.31
2022-12-08T11:47:54.131Z,67.14
2022-12-08T11:50:34.163Z,65.46
2022-12-08T11:53:01.763Z,65.87
2022-12-08T11:55:37.210Z,66.17
2022-12-08T11:58:38.882Z,65.09
2022-12-08T12:01:17.209Z,65.31
2022-12-08T12:03:54.000Z,65.12
2022-12-08T12:06:54.773Z,66.15
2022-12-08T12:09:34.741Z,66.12
2022-12-08T12:12:16.760Z,64.89
2022-12-08T12:15:02.858Z,63.43
2022-12-08T12:17:36.564Z,65.12
2022-12-08T12:20:12.434Z,64.56
2022-12-08T12:22:40.215Z,65.14
2022-12-08T12:25:17.981Z,64.19
2022-12-08T12:27:46.006Z,63.63
2022-12-08T12:30:34.471Z,64.17
2022-12-08T12:33:02.324Z,64.70
2022-12-08T12:35:29.961Z,64.22
2022-12-08T12:38:04.797Z,64.58
2022-12-08T12:40:39.895Z,63.83
2022-12-08T12:43:10.293Z,64.30
2022-12-08T12:45:43.865Z,63.49
2022-12-08T12:48:22.200Z,64.25
2022-12-08T12:50:51.126Z,64.20
2022-12-08T12:53:19.028Z,63.61
2022-12-08T12:55:46.849Z,63.18
2022-12-08T12:58:23.710Z,63.37
2022-12-08T13:01:14.099Z,61.93
2022-12-08T13:03:48.570Z,62.40
2022-12-08T13:06:23.483Z,62.51
2022-12-08T13:08:53.529Z,62.62
2022-12-08T13:11:21.607Z,62.43
2022-12-08T13:14:01.396Z,62.30
2022-12-08T13:16:35.047Z,61.22
2022-12-08T13:19:14.060Z,63.76
2022-12-08T13:21:42.263Z,63.39
2022-12-08T13:24:25.266Z,63.23
2022-12-08T13:27:16.336Z,63.95
2022-12-08T13:29:44.140Z,64.84
2022-12-08T13:32:11.829Z,63.23
2022-12-08T13:34:50.700Z,62.22
2022-12-08T13:37:56.915Z,63.48
2022-12-08T13:40:26.234Z,62.79
2022-12-08T13:43:06.599Z,63.85
2022-12-08T13:57:30.676Z,64.24
2022-12-08T14:00:16.034Z,64.52
2022-12-08T14:02:48.254Z,64.78
2022-12-08T14:05:20.467Z,64.68
2022-12-08T14:07:51.766Z,63.26
2022-12-08T14:10:22.574Z,63.93
2022-12-08T14:12:56.364Z,65.05
2022-12-08T14:15:25.387Z,63.87
2022-12-08T14:17:57.335Z,63.20
2022-12-08T14:20:30.177Z,63.88
2022-12-08T14:22:59.442Z,65.25
2022-12-08T14:25:28.228Z,64.38
2022-12-08T14:27:59.926Z,64.08
2022-12-08T14:30:32.835Z,64.66
2022-12-08T14:33:01.535Z,66.29
2022-12-08T14:35:37.528Z,66.13
2022-12-08T14:38:09.901Z,66.37
2022-12-08T14:40:39.847Z,64.85
2022-12-08T14:43:10.377Z,66.00
2022-12-08T14:45:41.309Z,65.49
2022-12-08T14:48:26.848Z,65.26
2022-12-08T14:51:04.821Z,65.81
2022-12-08T14:53:39.742Z,66.53
2022-12-08T14:56:26.082Z,65.75
2022-12-08T14:59:13.199Z,66.07
2022-12-08T15:01:42.300Z,66.79
2022-12-08T15:04:12.672Z,65.02
2022-12-08T15:06:57.953Z,64.70
2022-12-08T15:09:38.661Z,64.52
2022-12-08T15:12:07.081Z,63.29
2022-12-08T15:14:37.142Z,64.33
2022-12-08T15:17:23.917Z,65.47
2022-12-08T15:19:59.105Z,66.81
2022-12-08T15:22:29.505Z,66.93
2022-12-08T15:24:57.569Z,66.02
2022-12-08T15:27:25.690Z,67.11
2022-12-08T15:29:53.631Z,65.77
2022-12-08T15:32:23.125Z,67.79
2022-12-08T15:34:50.568Z,67.48
2022-12-08T15:37:28.046Z,68.83
2022-12-08T15:39:55.774Z,69.57
2022-12-08T15:42:23.177Z,69.52
2022-12-08T15:44:50.589Z,68.84
2022-12-08T15:47:20.832Z,69.03
2022-12-08T15:49:49.728Z,69.45
2022-12-08T15:52:20.283Z,69.99
2022-12-08T15:54:49.102Z,70.00
2022-12-08T15:58:17.128Z,69.58
2022-12-08T16:00:51.235Z,70.32
2022-12-08T16:03:59.734Z,68.33
2022-12-08T16:07:26.831Z,67.21
2022-12-08T16:09:13.117Z,70.70
2022-12-08T16:12:09.105Z,69.63
2022-12-08T16:17:28.270Z,69.19
2022-12-08T16:19:56.166Z,69.81
2022-12-08T16:25:19.936Z,68.99
2022-12-08T16:28:29.518Z,68.89
2022-12-08T16:30:38.994Z,67.30
2022-12-08T16:33:06.905Z,68.03
2022-12-08T16:35:34.836Z,67.04
2022-12-08T16:38:05.328Z,66.80
2022-12-08T16:40:32.838Z,66.42
2022-12-08T16:43:00.512Z,65.71
2022-12-08T16:45:30.076Z,65.81
2022-12-08T16:48:00.155Z,66.79
2022-12-08T16:50:33.533Z,67.26
2022-12-08T16:53:06.987Z,67.05
2022-12-08T16:55:35.758Z,67.31
2022-12-08T16:58:03.735Z,67.93
2022-12-08T17:00:37.369Z,66.46
2022-12-08T17:03:08.469Z,68.18
2022-12-08T17:05:36.153Z,68.47
2022-12-08T17:08:03.700Z,67.42
2022-12-08T17:10:34.430Z,67.81
2022-12-08T17:13:02.516Z,67.46
2022-12-08T17:15:30.014Z,68.31
2022-12-08T17:17:58.104Z,67.35
2022-12-08T17:20:27.421Z,68.40
2022-12-08T17:22:57.483Z,68.34
2022-12-08T17:25:26.661Z,68.02
2022-12-08T17:27:54.881Z,67.41
2022-12-08T17:30:22.435Z,68.57
2022-12-08T17:32:52.714Z,70.36
2022-12-08T17:35:20.621Z,69.92
2022-12-08T17:37:48.605Z,69.64
2022-12-08T17:40:16.913Z,68.75
2022-12-08T17:42:45.201Z,69.88
2022-12-08T17:45:12.739Z,69.90
2022-12-08T17:47:40.580Z,71.64
2022-12-08T17:50:08.938Z,71.50
2022-12-08T17:52:37.633Z,72.39
2022-12-08T17:55:07.384Z,71.19
2022-12-08T17:57:35.317Z,71.27
2022-12-08T18:00:04.015Z,71.86
2022-12-08T18:02:39.586Z,71.30
2022-12-08T18:05:08.815Z,72.79
2022-12-08T18:07:37.818Z,71.66
2022-12-08T18:10:08.111Z,72.94
2022-12-08T18:12:36.430Z,71.87
2022-12-08T18:15:07.424Z,71.03
2022-12-08T18:17:35.407Z,70.46
2022-12-08T18:20:04.279Z,69.33
2022-12-08T18:22:32.612Z,68.89
2022-12-08T18:25:00.175Z,68.32
2022-12-08T18:27:28.746Z,67.87
2022-12-08T18:29:56.978Z,68.29
2022-12-08T18:32:24.825Z,68.11
2022-12-08T18:34:54.334Z,67.49
2022-12-08T18:37:22.392Z,66.80
2022-12-08T18:39:51.885Z,66.91
2022-12-08T18:42:23.416Z,66.91
2022-12-08T18:44:53.704Z,66.46
2022-12-08T18:47:23.429Z,67.75
2022-12-08T18:49:51.812Z,68.80
2022-12-08T18:52:28.138Z,66.93
2022-12-08T18:55:07.807Z,67.55
2022-12-08T18:57:38.898Z,67.72
2022-12-08T19:00:10.163Z,66.22
2022-12-08T19:02:39.072Z,65.74
2022-12-08T19:05:08.570Z,66.21
2022-12-08T19:07:40.105Z,66.03
2022-12-08T19:10:10.066Z,67.15
2022-12-08T19:12:38.694Z,66.43
2022-12-08T19:15:07.532Z,66.59
2022-12-08T19:17:37.191Z,67.06
2022-12-08T19:20:07.487Z,65.79
2022-12-08T19:22:35.746Z,66.30
2022-12-08T19:25:05.092Z,66.10
2022-12-08T19:27:34.642Z,65.90
2022-12-08T19:30:03.720Z,66.14
2022-12-08T19:32:32.180Z,65.16
2022-12-08T19:35:00.752Z,64.76
2022-12-08T19:37:29.914Z,63.99
2022-12-08T19:40:17.065Z,64.12
2022-12-08T19:43:05.918Z,64.90
2022-12-08T19:45:36.093Z,66.45
2022-12-08T19:48:05.729Z,66.27
2022-12-08T19:50:36.811Z,65.86
2022-12-08T19:53:17.349Z,64.87
2022-12-08T19:55:45.795Z,65.99
2022-12-08T19:58:16.680Z,66.09
2022-12-08T20:00:47.188Z,66.37
2022-12-08T20:03:20.544Z,68.56
2022-12-08T20:05:50.992Z,68.37
2022-12-08T20:08:20.043Z,68.98
2022-12-08T20:10:48.728Z,68.80
2022-12-08T20:13:36.381Z,69.15
2022-12-08T20:16:05.724Z,68.99
2022-12-08T20:18:38.626Z,69.42
2022-12-08T20:21:07.280Z,68.95
2022-12-08T20:23:38.503Z,69.03
2022-12-08T20:26:10.589Z,69.18
2022-12-08T20:28:39.712Z,67.45
2022-12-08T20:31:09.057Z,67.12
2022-12-08T20:33:37.207Z,65.81
2022-12-08T20:36:07.822Z,67.81
2022-12-08T20:38:37.111Z,68.22
2022-12-08T20:41:10.796Z,68.25
2022-12-08T20:43:39.962Z,67.24
2022-12-08T20:46:11.302Z,67.80
2022-12-08T20:48:40.678Z,67.62
2022-12-08T20:51:13.698Z,67.73
2022-12-08T20:53:42.128Z,67.22
2022-12-08T20:56:17.885Z,67.98
2022-12-08T20:58:46.410Z,68.23
2022-12-08T21:01:18.294Z,68.46
2022-12-08T21:03:47.627Z,68.81
2022-12-08T21:06:16.412Z,67.44
2022-12-08T21:08:43.947Z,67.16
2022-12-08T21:11:12.834Z,67.35
2022-12-08T21:13:40.769Z,67.92
2022-12-08T21:16:14.334Z,66.80
2022-12-08T21:18:42.300Z,67.84
2022-12-08T21:21:14.394Z,68.00
2022-12-08T21:23:43.287Z,67.28
2022-12-08T21:26:23.274Z,68.74
2022-12-08T21:28:51.230Z,68.17
2022-12-08T21:31:20.222Z,70.32
2022-12-08T21:33:48.537Z,68.28
2022-12-08T21:36:20.055Z,67.67
2022-12-08T21:38:47.987Z,67.41
2022-12-08T21:41:39.128Z,67.46
2022-12-08T21:44:09.576Z,68.04
2022-12-08T21:46:37.678Z,67.29
2022-12-08T21:49:05.405Z,70.20
2022-12-08T21:51:35.100Z,70.37
2022-12-08T21:54:03.037Z,69.98
2022-12-08T21:56:30.482Z,69.76
2022-12-08T21:58:58.033Z,69.10
2022-12-08T22:01:25.810Z,69.98
2022-12-08T22:03:54.339Z,69.28
2022-12-08T22:06:22.100Z,68.13
2022-12-08T22:08:49.649Z,68.59
2022-12-08T22:11:18.036Z,68.39
2022-12-08T22:13:45.437Z,67.92
2022-12-08T22:16:14.989Z,69.69
2022-12-08T22:18:42.858Z,68.98
2022-12-08T22:21:11.786Z,68.04
2022-12-08T22:23:39.296Z,69.40
2022-12-08T22:26:08.361Z,69.19
2022-12-08T22:28:39.023Z,69.62
2022-12-08T22:31:16.790Z,70.87
2022-12-08T22:33:44.763Z,69.69
2022-12-08T22:36:21.743Z,69.50
2022-12-08T22:38:49.919Z,69.38
2022-12-08T22:41:18.452Z,69.85
2022-12-08T22:43:47.004Z,69.84
2022-12-08T22:46:23.371Z,69.92
2022-12-08T22:48:51.860Z,69.03
2022-12-08T22:51:19.471Z,70.24
2022-12-08T22:53:47.495Z,69.53
2022-12-08T22:56:18.117Z,69.38
2022-12-08T22:58:45.775Z,68.56
2022-12-08T23:01:29.279Z,68.20
2022-12-08T23:03:57.773Z,68.67
2022-12-08T23:06:26.500Z,69.33
2022-12-08T23:08:54.359Z,69.83
2022-12-08T23:11:24.750Z,68.78
2022-12-08T23:13:52.254Z,68.46
2022-12-08T23:16:19.730Z,68.88
2022-12-08T23:18:47.842Z,68.31
2022-12-08T23:21:17.805Z,68.06
2022-12-08T23:23:45.646Z,69.16
2022-12-08T23:26:27.620Z,68.46
2022-12-08T23:28:56.379Z,68.34
2022-12-08T23:31:24.859Z,69.14
2022-12-08T23:33:52.959Z,68.49
2022-12-08T23:36:21.678Z,70.29
2022-12-08T23:38:49.541Z,71.49
2022-12-08T23:41:17.307Z,69.44
2022-12-08T23:43:46.398Z,70.47
2022-12-08T23:46:15.824Z,71.91
2022-12-08T23:48:43.734Z,71.36
2022-12-08T23:51:12.124Z,70.82
2022-12-08T23:53:40.164Z,71.02
2022-12-08T23:56:09.858Z,69.47
2022-12-08T23:58:37.764Z,69.51
